createdAt,value
2023-02-21T00:01:01.651Z,68.62
2023-02-21T00:03:48.453Z,68.69
2023-02-21T00:06:35.690Z,68.64
2023-02-21T00:09:23.429Z,68.94
2023-02-21T00:12:15.766Z,69.14
2023-02-21T00:15:03.489Z,69.19
2023-02-21T00:17:50.709Z,69.29
2023-02-21T00:20:38.238Z,69.48
2023-02-21T00:23:25.458Z,69.52
2023-02-21T00:26:12.366Z,69.74
2023-02-21T00:29:00.195Z,70.04
2023-02-21T00:31:47.633Z,70.10
2023-02-21T00:34:34.434Z,70.23
2023-02-21T00:37:21.227Z,70.57
2023-02-21T00:40:08.156Z,70.66
2023-02-21T00:42:55.482Z,70.78
2023-02-21T00:45:42.761Z,70.78
2023-02-21T00:48:29.722Z,70.98
2023-02-21T00:51:16.772Z,71.16
2023-02-21T00:54:04.054Z,71.58
2023-02-21T00:56:50.686Z,71.54
2023-02-21T00:59:37.869Z,71.81
2023-02-21T01:02:25.000Z,71.98
2023-02-21T01:05:12.331Z,72.44
2023-02-21T01:07:59.136Z,72.61
2023-02-21T01:10:46.661Z,72.88
2023-02-21T01:13:33.281Z,73.23
2023-02-21T01:16:19.972Z,73.31
2023-02-21T01:19:08.531Z,73.44
2023-02-21T01:21:55.954Z,73.64
2023-02-21T01:24:42.686Z,74.12
2023-02-21T01:27:29.367Z,74.49
2023-02-21T01:30:16.249Z,74.64
2023-02-21T01:33:03.314Z,74.99
2023-02-21T01:35:50.036Z,75.28
2023-02-21T01:38:37.434Z,75.46
2023-02-21T01:41:24.301Z,75.87
2023-02-21T01:44:26.624Z,76.21
2023-02-21T01:47:13.758Z,76.62
2023-02-21T01:50:00.871Z,76.48
2023-02-21T01:52:47.768Z,76.87
2023-02-21T01:55:35.303Z,76.88
2023-02-21T01:58:22.423Z,77.01
2023-02-21T02:01:09.659Z,77.23
2023-02-21T02:04:00.453Z,77.27
2023-02-21T02:06:47.762Z,77.22
2023-02-21T02:09:37.876Z,77.18
2023-02-21T02:12:29.686Z,77.20
2023-02-21T02:15:16.046Z,77.25
2023-02-21T02:17:56.442Z,77.00
2023-02-21T02:21:02.202Z,77.15
2023-02-21T02:23:39.894Z,76.98
2023-02-21T02:26:49.963Z,76.94
2023-02-21T02:29:49.688Z,76.81
2023-02-21T02:32:37.605Z,76.86
2023-02-21T02:35:13.635Z,76.64
2023-02-21T02:37:52.591Z,76.55
2023-02-21T02:40:34.991Z,76.47
2023-02-21T02:43:13.120Z,76.38
2023-02-21T02:45:49.370Z,76.43
2023-02-21T02:48:23.794Z,76.43
2023-02-21T02:50:52.686Z,76.35
2023-02-21T02:53:26.582Z,76.28
2023-02-21T02:56:02.558Z,76.25
2023-02-21T02:58:43.813Z,76.08
2023-02-21T03:01:31.060Z,76.08
2023-02-21T03:04:05.471Z,75.93
2023-02-21T03:06:58.834Z,75.91
2023-02-21T03:09:39.214Z,75.93
2023-02-21T03:12:33.374Z,75.93
2023-02-21T03:15:15.797Z,76.12
2023-02-21T03:17:49.410Z,76.09
2023-02-21T03:20:19.588Z,76.15
2023-02-21T03:22:50.146Z,76.16
2023-02-21T03:25:21.404Z,76.06
2023-02-21T03:27:52.305Z,76.11
2023-02-21T03:30:24.816Z,76.10
2023-02-21T03:32:55.256Z,75.99
2023-02-21T03:35:32.483Z,76.00
2023-02-21T03:38:00.569Z,75.82
2023-02-21T03:40:32.364Z,75.81
2023-02-21T03:43:03.248Z,75.79
2023-02-21T03:45:35.245Z,75.70
2023-02-21T03:48:09.563Z,75.77
2023-02-21T03:50:38.740Z,75.65
2023-02-21T03:53:09.590Z,75.54
2023-02-21T03:55:38.374Z,75.41
2023-02-21T03:58:11.473Z,75.38
2023-02-21T04:00:40.142Z,75.31
2023-02-21T04:03:08.957Z,75.09
2023-02-21T04:05:40.927Z,75.02
2023-02-21T04:08:11.034Z,75.01
2023-02-21T04:10:50.473Z,74.97
2023-02-21T04:13:23.972Z,74.84
2023-02-21T04:15:52.851Z,74.99
2023-02-21T04:18:21.642Z,74.81
2023-02-21T04:20:51.146Z,74.82
2023-02-21T04:23:22.198Z,74.80
2023-02-21T04:25:50.898Z,74.80
2023-02-21T04:28:34.836Z,74.78
2023-02-21T04:31:03.495Z,74.94
2023-02-21T04:33:32.190Z,74.89
2023-02-21T04:36:00.771Z,74.93
2023-02-21T04:38:42.295Z,74.81
2023-02-21T04:41:10.638Z,74.94
2023-02-21T04:43:38.819Z,75.17
2023-02-21T04:46:07.152Z,75.61
2023-02-21T04:48:35.469Z,75.69
2023-02-21T04:51:14.987Z,75.75
2023-02-21T04:53:47.015Z,76.03
2023-02-21T04:56:18.683Z,76.84
2023-02-21T04:58:47.599Z,77.66
2023-02-21T05:01:18.339Z,78.15
2023-02-21T05:03:47.242Z,78.33
2023-02-21T05:06:23.837Z,78.54
2023-02-21T05:08:52.934Z,78.02
2023-02-21T05:11:21.927Z,77.43
2023-02-21T05:13:50.414Z,77.31
2023-02-21T05:16:19.974Z,77.46
2023-02-21T05:18:49.089Z,77.64
2023-02-21T05:21:19.084Z,77.55
2023-02-21T05:23:57.142Z,77.68
2023-02-21T05:26:29.990Z,77.56
2023-02-21T05:28:58.270Z,77.66
2023-02-21T05:31:26.465Z,77.90
2023-02-21T05:33:54.920Z,77.94
2023-02-21T05:36:25.589Z,78.23
2023-02-21T05:38:56.038Z,78.18
2023-02-21T05:41:24.779Z,78.43
2023-02-21T05:43:53.694Z,78.52
2023-02-21T05:46:30.431Z,78.51
2023-02-21T05:49:00.764Z,78.49
2023-02-21T05:51:34.996Z,78.53
2023-02-21T05:54:03.715Z,78.49
2023-02-21T05:56:39.340Z,78.62
2023-02-21T05:59:09.096Z,78.64
2023-02-21T06:01:37.671Z,78.98
2023-02-21T06:04:07.839Z,79.35
2023-02-21T06:06:36.931Z,80.09
2023-02-21T06:09:06.858Z,80.67
2023-02-21T06:11:37.928Z,81.27
2023-02-21T06:14:13.214Z,81.38
2023-02-21T06:16:42.215Z,81.40
2023-02-21T06:19:12.789Z,81.76
2023-02-21T06:21:43.891Z,82.22
2023-02-21T06:24:13.183Z,82.36
2023-02-21T06:26:44.846Z,82.27
2023-02-21T06:29:14.359Z,82.54
2023-02-21T06:31:43.570Z,82.66
2023-02-21T06:34:12.747Z,82.62
2023-02-21T06:36:41.138Z,82.81
2023-02-21T06:39:12.800Z,82.81
2023-02-21T06:41:41.276Z,82.81
2023-02-21T06:44:10.369Z,82.85
2023-02-21T06:46:39.272Z,82.93
2023-02-21T06:49:07.729Z,82.84
2023-02-21T06:51:38.291Z,82.96
2023-02-21T06:54:08.136Z,83.27
2023-02-21T06:56:37.335Z,83.02
2023-02-21T06:59:05.818Z,82.81
2023-02-21T07:01:34.378Z,82.79
2023-02-21T07:04:03.291Z,82.47
2023-02-21T07:06:33.689Z,82.05
2023-02-21T07:09:02.289Z,81.65
2023-02-21T07:11:33.374Z,81.64
2023-02-21T07:14:02.838Z,81.60
2023-02-21T07:16:31.753Z,81.65
2023-02-21T07:19:00.308Z,81.60
2023-02-21T07:21:29.005Z,81.23
2023-02-21T07:23:57.589Z,81.05
2023-02-21T07:26:26.068Z,80.68
2023-02-21T07:28:54.918Z,80.57
2023-02-21T07:31:24.034Z,80.49
2023-02-21T07:33:52.534Z,80.33
2023-02-21T07:36:22.946Z,80.16
2023-02-21T07:38:51.539Z,80.24
2023-02-21T07:41:20.147Z,80.52
2023-02-21T07:43:49.427Z,80.35
2023-02-21T07:46:18.663Z,80.59
2023-02-21T07:48:47.621Z,79.87
2023-02-21T07:51:16.320Z,79.44
2023-02-21T07:53:45.619Z,79.46
2023-02-21T07:56:14.211Z,79.23
2023-02-21T07:58:42.540Z,78.87
2023-02-21T08:01:11.058Z,78.66
2023-02-21T08:03:41.174Z,78.14
2023-02-21T08:06:11.083Z,78.51
2023-02-21T08:08:39.677Z,78.54
2023-02-21T08:11:08.563Z,79.11
2023-02-21T08:13:37.654Z,79.25
2023-02-21T08:16:07.460Z,79.20
2023-02-21T08:18:35.943Z,79.20
2023-02-21T08:21:08.331Z,79.05
2023-02-21T08:23:37.736Z,78.64
2023-02-21T08:26:06.733Z,78.14
2023-02-21T08:28:36.227Z,77.63
2023-02-21T08:31:05.736Z,77.78
2023-02-21T08:33:34.412Z,77.56
2023-02-21T08:36:03.001Z,77.80
2023-02-21T08:38:31.680Z,77.78
2023-02-21T08:41:00.903Z,77.77
2023-02-21T08:43:29.669Z,77.70
2023-02-21T08:45:59.361Z,77.77
2023-02-21T08:48:28.377Z,77.23
2023-02-21T08:50:58.092Z,77.12
2023-02-21T08:53:27.471Z,77.13
2023-02-21T08:55:57.487Z,77.02
2023-02-21T08:58:27.125Z,76.73
2023-02-21T09:00:56.164Z,76.82
2023-02-21T09:03:25.417Z,76.91
2023-02-21T09:05:54.401Z,76.69
2023-02-21T09:08:27.098Z,76.72
2023-02-21T09:10:58.374Z,77.04
2023-02-21T09:13:28.130Z,76.97
2023-02-21T09:15:57.652Z,76.58
2023-02-21T09:18:27.460Z,76.46
2023-02-21T09:20:57.672Z,76.61
2023-02-21T09:23:29.178Z,76.28
2023-02-21T09:25:58.337Z,76.43
2023-02-21T09:28:27.309Z,76.32
2023-02-21T09:30:56.122Z,76.50
2023-02-21T09:33:25.316Z,76.71
2023-02-21T09:35:54.410Z,77.05
2023-02-21T09:38:23.081Z,77.35
2023-02-21T09:41:01.908Z,77.60
2023-02-21T09:43:38.549Z,77.92
2023-02-21T09:46:17.115Z,77.73
2023-02-21T09:48:46.419Z,77.45
2023-02-21T09:51:15.898Z,77.26
2023-02-21T09:53:47.760Z,76.97
2023-02-21T09:56:35.503Z,76.40
2023-02-21T09:59:04.402Z,76.24
2023-02-21T10:01:47.925Z,76.31
2023-02-21T10:04:33.754Z,76.42
2023-02-21T10:07:19.095Z,77.19
2023-02-21T10:10:07.739Z,77.55
2023-02-21T10:12:44.730Z,78.78
2023-02-21T10:15:25.805Z,79.75
2023-02-21T10:18:04.232Z,80.52
2023-02-21T10:20:42.709Z,80.90
2023-02-21T10:23:48.312Z,80.86
2023-02-21T10:26:23.908Z,81.96
2023-02-21T10:28:56.454Z,82.40
2023-02-21T10:31:35.673Z,82.65
2023-02-21T10:34:08.000Z,82.93
2023-02-21T10:36:36.782Z,83.10
2023-02-21T10:39:20.221Z,82.96
2023-02-21T10:41:51.472Z,82.84
2023-02-21T10:44:27.856Z,82.54
2023-02-21T10:47:09.152Z,82.06
2023-02-21T10:49:47.342Z,82.41
2023-02-21T10:52:21.213Z,82.29
2023-02-21T10:55:20.057Z,82.25
2023-02-21T10:57:58.336Z,81.93
2023-02-21T11:00:48.745Z,81.44
2023-02-21T11:03:23.581Z,81.11
2023-02-21T11:06:00.138Z,80.61
2023-02-21T11:08:38.268Z,80.33
2023-02-21T11:11:08.391Z,79.47
2023-02-21T11:13:37.561Z,79.88
2023-02-21T11:16:19.752Z,79.91
2023-02-21T11:19:06.251Z,79.22
2023-02-21T11:21:34.945Z,79.62
2023-02-21T11:24:06.418Z,79.76
2023-02-21T11:26:50.056Z,79.86
2023-02-21T11:29:24.792Z,80.16
2023-02-21T11:31:54.627Z,81.03
2023-02-21T11:34:29.869Z,81.57
2023-02-21T11:37:04.480Z,82.18
2023-02-21T11:39:34.907Z,82.81
2023-02-21T11:42:23.223Z,83.32
2023-02-21T11:45:07.166Z,83.81
2023-02-21T11:47:46.813Z,83.03
2023-02-21T11:50:18.580Z,82.74
2023-02-21T11:53:17.097Z,82.09
2023-02-21T11:56:12.059Z,81.51
2023-02-21T11:59:04.188Z,81.25
2023-02-21T12:02:02.397Z,80.79
2023-02-21T12:04:34.533Z,79.55
2023-02-21T12:07:16.840Z,80.21
2023-02-21T12:09:52.996Z,80.52
2023-02-21T12:12:24.648Z,78.26
2023-02-21T12:15:18.025Z,78.61
2023-02-21T12:18:16.503Z,78.69
2023-02-21T12:21:04.017Z,74.74
2023-02-21T12:23:49.192Z,75.14
2023-02-21T12:26:50.145Z,74.04
2023-02-21T12:29:26.316Z,74.00
2023-02-21T12:32:24.634Z,74.16
2023-02-21T12:35:39.899Z,73.97
2023-02-21T12:38:37.831Z,72.42
2023-02-21T12:41:29.695Z,72.55
2023-02-21T12:44:23.050Z,73.03
2023-02-21T12:46:51.920Z,72.88
2023-02-21T12:49:43.870Z,73.50
2023-02-21T12:52:22.068Z,72.78
2023-02-21T12:55:25.256Z,71.50
2023-02-21T12:58:04.805Z,72.39
2023-02-21T13:00:41.803Z,71.71
2023-02-21T13:03:36.276Z,70.76
2023-02-21T13:06:37.028Z,70.72
2023-02-21T13:09:06.135Z,69.04
2023-02-21T13:12:14.740Z,68.90
2023-02-21T13:14:49.353Z,68.36
2023-02-21T13:17:19.881Z,69.67
2023-02-21T13:19:54.207Z,70.53
2023-02-21T13:23:19.427Z,70.51
2023-02-21T13:26:25.778Z,71.37
2023-02-21T13:28:56.388Z,71.83
2023-02-21T13:31:38.700Z,71.33
2023-02-21T13:34:11.880Z,71.19
2023-02-21T13:36:42.033Z,71.19
2023-02-21T13:39:15.333Z,71.91
2023-02-21T13:41:48.282Z,72.16
2023-02-21T13:44:28.341Z,72.73
2023-02-21T13:47:01.738Z,73.38
2023-02-21T13:49:56.525Z,73.85
2023-02-21T13:52:36.387Z,73.98
2023-02-21T13:55:13.969Z,73.83
2023-02-21T13:57:49.917Z,73.70
2023-02-21T14:00:21.488Z,73.13
2023-02-21T14:03:02.999Z,72.78
2023-02-21T14:05:47.422Z,72.93
2023-02-21T14:08:31.864Z,73.11
2023-02-21T14:11:07.192Z,73.30
2023-02-21T14:14:03.262Z,73.36
2023-02-21T14:16:37.349Z,73.57
2023-02-21T14:19:12.481Z,73.22
2023-02-21T14:21:48.157Z,73.15
2023-02-21T14:24:41.515Z,72.82
2023-02-21T14:30:05.717Z,72.72
2023-02-21T14:32:50.853Z,71.67
2023-02-21T14:35:19.879Z,71.26
2023-02-21T14:37:51.245Z,69.87
2023-02-21T14:40:36.727Z,69.58
2023-02-21T14:43:16.444Z,70.31
2023-02-21T14:46:31.432Z,70.27
2023-02-21T14:49:36.591Z,69.30
2023-02-21T14:52:26.953Z,68.98
2023-02-21T14:55:33.391Z,69.54
2023-02-21T14:58:27.531Z,69.71
2023-02-21T15:01:00.837Z,69.69
2023-02-21T15:03:49.366Z,70.26
2023-02-21T15:06:21.476Z,70.48
2023-02-21T15:08:52.049Z,70.46
2023-02-21T15:11:25.926Z,70.15
2023-02-21T15:14:23.807Z,70.05
2023-02-21T15:17:12.164Z,70.57
2023-02-21T15:19:41.926Z,70.74
2023-02-21T15:22:26.000Z,70.80
2023-02-21T15:25:12.470Z,71.35
2023-02-21T15:27:51.406Z,71.70
2023-02-21T15:30:25.267Z,72.21
2023-02-21T15:33:02.977Z,72.53
2023-02-21T15:35:46.715Z,72.68
2023-02-21T15:38:20.751Z,72.89
2023-02-21T15:40:53.830Z,73.09
2023-02-21T15:43:34.181Z,73.46
2023-02-21T15:46:05.852Z,73.97
2023-02-21T15:48:35.854Z,74.37
2023-02-21T15:51:07.779Z,74.56
2023-02-21T15:53:36.676Z,74.89
2023-02-21T15:56:20.220Z,75.17
2023-02-21T15:59:07.357Z,75.27
2023-02-21T16:01:36.292Z,75.43
2023-02-21T16:04:18.876Z,75.42
2023-02-21T16:06:57.099Z,75.31
2023-02-21T16:09:28.622Z,75.15
2023-02-21T16:12:03.450Z,75.19
2023-02-21T16:14:43.797Z,75.36
2023-02-21T16:17:24.675Z,75.38
2023-02-21T16:20:00.412Z,75.25
2023-02-21T16:22:59.648Z,75.32
2023-02-21T16:25:28.614Z,75.04
2023-02-21T16:28:00.481Z,74.74
2023-02-21T16:30:31.766Z,74.49
2023-02-21T16:33:02.962Z,74.01
2023-02-21T16:35:32.677Z,73.23
2023-02-21T16:38:02.662Z,72.92
2023-02-21T16:40:34.300Z,72.42
2023-02-21T16:43:05.190Z,71.79
2023-02-21T16:45:34.185Z,71.70
2023-02-21T16:48:07.600Z,71.49
2023-02-21T16:50:38.471Z,71.38
2023-02-21T16:53:08.233Z,71.24
2023-02-21T16:55:36.951Z,71.48
2023-02-21T16:58:16.154Z,71.47
2023-02-21T17:00:44.739Z,71.65
2023-02-21T17:03:13.892Z,71.91
2023-02-21T17:05:42.724Z,72.21
2023-02-21T17:08:11.944Z,72.57
2023-02-21T17:10:40.916Z,72.88
2023-02-21T17:13:09.911Z,73.11
2023-02-21T17:15:39.353Z,73.43
2023-02-21T17:18:08.199Z,73.50
2023-02-21T17:20:37.714Z,73.52
2023-02-21T17:23:07.009Z,73.84
2023-02-21T17:25:36.819Z,73.77
2023-02-21T17:28:05.795Z,73.96
2023-02-21T17:30:34.771Z,73.96
2023-02-21T17:33:04.181Z,74.07
2023-02-21T17:35:34.636Z,74.24
2023-02-21T17:38:05.014Z,74.42
2023-02-21T17:40:34.050Z,74.49
2023-02-21T17:43:08.919Z,74.64
2023-02-21T17:45:38.739Z,74.75
2023-02-21T17:48:08.244Z,75.27
2023-02-21T17:50:37.310Z,75.37
2023-02-21T17:53:06.710Z,75.46
2023-02-21T17:55:35.719Z,75.47
2023-02-21T17:58:04.300Z,75.79
2023-02-21T18:00:35.279Z,75.82
2023-02-21T18:03:06.266Z,75.91
2023-02-21T18:05:37.549Z,76.00
2023-02-21T18:08:06.292Z,76.31
2023-02-21T18:10:35.085Z,76.27
2023-02-21T18:13:03.653Z,75.73
2023-02-21T18:15:32.658Z,71.95
2023-02-21T18:18:07.106Z,72.76
2023-02-21T18:20:37.062Z,75.63
2023-02-21T18:23:09.382Z,76.03
2023-02-21T18:25:38.358Z,76.26
2023-02-21T18:28:08.680Z,76.40
2023-02-21T18:30:37.429Z,76.34
2023-02-21T18:33:07.104Z,76.37
2023-02-21T18:35:36.209Z,76.44
2023-02-21T18:38:05.693Z,76.43
2023-02-21T18:40:35.244Z,76.62
2023-02-21T18:43:08.227Z,76.60
2023-02-21T18:45:40.863Z,76.53
2023-02-21T18:48:10.469Z,76.49
2023-02-21T18:50:39.864Z,76.39
2023-02-21T18:53:09.273Z,76.37
2023-02-21T18:55:39.012Z,76.34
2023-02-21T18:58:08.600Z,76.39
2023-02-21T19:00:40.129Z,76.42
2023-02-21T19:03:11.532Z,76.45
2023-02-21T19:05:41.144Z,76.49
2023-02-21T19:08:11.571Z,76.66
2023-02-21T19:10:41.458Z,76.68
2023-02-21T19:13:11.493Z,76.70
2023-02-21T19:15:41.146Z,76.84
2023-02-21T19:18:10.877Z,76.87
2023-02-21T19:20:44.032Z,76.94
2023-02-21T19:23:16.493Z,76.88
2023-02-21T19:25:45.969Z,76.87
2023-02-21T19:28:15.611Z,76.75
2023-02-21T19:30:45.884Z,76.73
2023-02-21T19:33:17.269Z,76.57
2023-02-21T19:35:46.779Z,76.60
2023-02-21T19:38:16.152Z,76.48
2023-02-21T19:40:46.902Z,76.41
2023-02-21T19:43:17.644Z,76.33
2023-02-21T19:45:48.674Z,76.26
2023-02-21T19:48:21.424Z,76.10
2023-02-21T19:50:51.618Z,76.17
2023-02-21T19:53:22.000Z,76.11
2023-02-21T19:55:51.864Z,76.09
2023-02-21T19:58:21.276Z,75.99
2023-02-21T20:00:51.565Z,75.93
2023-02-21T20:03:21.994Z,76.00
2023-02-21T20:05:52.743Z,75.89
2023-02-21T20:08:24.329Z,75.91
2023-02-21T20:10:54.853Z,75.85
2023-02-21T20:13:26.558Z,75.87
2023-02-21T20:15:57.002Z,75.79
2023-02-21T20:18:28.050Z,75.78
2023-02-21T20:20:58.160Z,75.75
2023-02-21T20:23:28.168Z,75.77
2023-02-21T20:25:58.161Z,75.73
2023-02-21T20:28:28.608Z,75.61
2023-02-21T20:30:59.656Z,75.52
2023-02-21T20:33:32.451Z,75.65
2023-02-21T20:36:02.205Z,75.64
2023-02-21T20:38:32.215Z,75.63
2023-02-21T20:41:02.018Z,75.75
2023-02-21T20:43:33.670Z,75.89
2023-02-21T20:46:05.464Z,75.91
2023-02-21T20:48:35.534Z,75.92
2023-02-21T20:51:08.895Z,75.85
2023-02-21T20:53:40.846Z,75.82
2023-02-21T20:56:12.074Z,75.86
2023-02-21T20:58:41.360Z,75.76
2023-02-21T21:01:15.257Z,75.79
2023-02-21T21:03:44.980Z,76.16
2023-02-21T21:06:15.046Z,76.24
2023-02-21T21:08:44.795Z,76.30
2023-02-21T21:11:15.614Z,76.14
2023-02-21T21:13:48.853Z,76.18
2023-02-21T21:16:19.171Z,76.04
2023-02-21T21:18:48.094Z,75.95
2023-02-21T21:21:17.399Z,75.90
2023-02-21T21:23:47.067Z,75.82
2023-02-21T21:26:17.501Z,75.86
2023-02-21T21:28:47.604Z,75.68
2023-02-21T21:31:17.113Z,75.70
2023-02-21T21:33:47.221Z,75.47
2023-02-21T21:36:16.124Z,75.31
2023-02-21T21:38:45.251Z,75.21
2023-02-21T21:41:15.604Z,75.04
2023-02-21T21:43:46.379Z,74.87
2023-02-21T21:46:17.310Z,74.77
2023-02-21T21:48:47.484Z,74.71
2023-02-21T21:51:16.779Z,74.86
2023-02-21T21:53:47.735Z,75.01
2023-02-21T21:56:23.926Z,74.88
2023-02-21T21:58:53.855Z,74.64
2023-02-21T22:01:22.846Z,74.84
2023-02-21T22:03:51.704Z,74.64
2023-02-21T22:06:21.310Z,73.27
2023-02-21T22:08:50.340Z,70.19
2023-02-21T22:11:21.849Z,69.90
2023-02-21T22:13:52.552Z,69.60
2023-02-21T22:16:24.032Z,69.23
2023-02-21T22:18:54.720Z,69.13
2023-02-21T22:21:24.337Z,69.05
2023-02-21T22:23:53.728Z,69.09
2023-02-21T22:26:24.506Z,69.05
2023-02-21T22:28:56.205Z,69.13
2023-02-21T22:31:27.889Z,69.15
2023-02-21T22:33:59.760Z,69.12
2023-02-21T22:36:32.107Z,69.15
2023-02-21T22:39:09.209Z,69.45
2023-02-21T22:41:38.597Z,69.45
2023-02-21T22:44:07.700Z,69.71
2023-02-21T22:46:42.586Z,69.84
2023-02-21T22:49:12.126Z,69.93
2023-02-21T22:51:41.013Z,69.87
2023-02-21T22:54:14.696Z,70.11
2023-02-21T22:56:51.290Z,70.39
2023-02-21T22:59:24.343Z,70.38
2023-02-21T23:01:53.588Z,70.64
2023-02-21T23:04:26.346Z,70.67
2023-02-21T23:06:58.620Z,70.55
2023-02-21T23:09:29.489Z,70.53
2023-02-21T23:12:00.734Z,70.55
2023-02-21T23:14:31.864Z,70.40
2023-02-21T23:17:01.287Z,70.50
2023-02-21T23:19:30.561Z,70.41
2023-02-21T23:21:59.024Z,70.41
2023-02-21T23:24:28.454Z,70.29
2023-02-21T23:26:56.955Z,70.14
2023-02-21T23:29:26.518Z,70.02
2023-02-21T23:32:09.866Z,69.86
2023-02-21T23:34:41.471Z,69.80
2023-02-21T23:37:15.526Z,69.78
2023-02-21T23:39:46.901Z,69.52
2023-02-21T23:42:17.672Z,69.54
2023-02-21T23:44:50.946Z,69.29
2023-02-21T23:47:19.997Z,69.23
2023-02-21T23:49:48.498Z,69.20
2023-02-21T23:52:17.675Z,69.10
2023-02-21T23:54:47.413Z,68.99
2023-02-21T23:57:15.784Z,68.95
2023-02-21T23:59:44.162Z,68.93
